sensor_id;sensor_type;location;lat;lon;timestamp;temperature;humidity
14182;DHT22;7171;50.936;6.764;2023-01-15T00:01:18;8.00;99.90
14182;DHT22;7171;50.936;6.764;2023-01-15T00:03:47;8.00;99.90
14182;DHT22;7171;50.936;6.764;2023-01-15T00:06:14;8.00;99.90
14182;DHT22;7171;50.936;6.764;2023-01-15T00:08:41;8.00;99.90
14182;DHT22;7171;50.936;6.764;2023-01-15T00:11:07;8.00;99.90
14182;DHT22;7171;50.936;6.764;2023-01-15T00:13:34;8.00;99.90
14182;DHT22;7171;50.936;6.764;2023-01-15T00:16:02;8.00;99.90
14182;DHT22;7171;50.936;6.764;2023-01-15T00:18:29;7.90;99.90
14182;DHT22;7171;50.936;6.764;2023-01-15T00:20:59;7.90;99.90
14182;DHT22;7171;50.936;6.764;2023-01-15T00:23:26;7.80;99.90
14182;DHT22;7171;50.936;6.764;2023-01-15T00:26:12;7.80;99.90
14182;DHT22;7171;50.936;6.764;2023-01-15T00:28:56;7.70;99.90
14182;DHT22;7171;50.936;6.764;2023-01-15T00:31:23;7.70;99.90
14182;DHT22;7171;50.936;6.764;2023-01-15T00:33:50;7.60;99.90
14182;DHT22;7171;50.936;6.764;2023-01-15T00:36:18;7.60;99.90
14182;DHT22;7171;50.936;6.764;2023-01-15T00:38:44;7.50;99.90
14182;DHT22;7171;50.936;6.764;2023-01-15T00:41:11;7.50;99.90
14182;DHT22;7171;50.936;6.764;2023-01-15T00:43:38;7.50;99.90
14182;DHT22;7171;50.936;6.764;2023-01-15T00:46:05;7.50;99.90
14182;DHT22;7171;50.936;6.764;2023-01-15T00:48:33;7.50;99.90
14182;DHT22;7171;50.936;6.764;2023-01-15T00:50:59;7.50;99.90
14182;DHT22;7171;50.936;6.764;2023-01-15T00:53:27;7.50;99.90
14182;DHT22;7171;50.936;6.764;2023-01-15T00:55:54;7.50;99.90
14182;DHT22;7171;50.936;6.764;2023-01-15T00:58:22;7.50;99.90
14182;DHT22;7171;50.936;6.764;2023-01-15T01:00:52;7.50;99.90
14182;DHT22;7171;50.936;6.764;2023-01-15T01:03:20;7.60;99.90
14182;DHT22;7171;50.936;6.764;2023-01-15T01:05:47;7.60;99.90
14182;DHT22;7171;50.936;6.764;2023-01-15T01:08:14;7.60;99.90
14182;DHT22;7171;50.936;6.764;2023-01-15T01:10:43;7.60;99.90
14182;DHT22;7171;50.936;6.764;2023-01-15T01:13:10;7.60;99.90
14182;DHT22;7171;50.936;6.764;2023-01-15T01:15:37;7.70;99.90
14182;DHT22;7171;50.936;6.764;2023-01-15T01:18:04;7.70;99.90
14182;DHT22;7171;50.936;6.764;2023-01-15T01:20:32;7.70;99.90
14182;DHT22;7171;50.936;6.764;2023-01-15T01:22:59;7.80;99.90
14182;DHT22;7171;50.936;6.764;2023-01-15T01:25:25;7.80;99.90
14182;DHT22;7171;50.936;6.764;2023-01-15T01:27:53;7.90;99.90
14182;DHT22;7171;50.936;6.764;2023-01-15T01:30:20;7.90;99.90
14182;DHT22;7171;50.936;6.764;2023-01-15T01:32:47;7.90;99.90
14182;DHT22;7171;50.936;6.764;2023-01-15T01:35:13;8.00;99.90
14182;DHT22;7171;50.936;6.764;2023-01-15T01:37:40;8.00;99.90
14182;DHT22;7171;50.936;6.764;2023-01-15T01:40:08;8.10;99.90
14182;DHT22;7171;50.936;6.764;2023-01-15T01:42:35;8.10;99.90
14182;DHT22;7171;50.936;6.764;2023-01-15T01:45:17;8.10;99.90
14182;DHT22;7171;50.936;6.764;2023-01-15T01:47:45;8.10;99.90
14182;DHT22;7171;50.936;6.764;2023-01-15T01:50:13;8.20;99.90
14182;DHT22;7171;50.936;6.764;2023-01-15T01:52:43;8.20;99.90
14182;DHT22;7171;50.936;6.764;2023-01-15T01:55:11;8.20;99.90
14182;DHT22;7171;50.936;6.764;2023-01-15T01:57:39;8.20;99.90
14182;DHT22;7171;50.936;6.764;2023-01-15T02:00:10;8.20;99.90
14182;DHT22;7171;50.936;6.764;2023-01-15T02:02:39;8.30;99.90
14182;DHT22;7171;50.936;6.764;2023-01-15T02:05:07;8.30;99.90
14182;DHT22;7171;50.936;6.764;2023-01-15T02:07:35;8.30;99.90
14182;DHT22;7171;50.936;6.764;2023-01-15T02:10:02;8.30;99.90
14182;DHT22;7171;50.936;6.764;2023-01-15T02:12:32;8.30;99.90
14182;DHT22;7171;50.936;6.764;2023-01-15T02:15:04;8.30;99.90
14182;DHT22;7171;50.936;6.764;2023-01-15T02:17:40;8.30;99.90
14182;DHT22;7171;50.936;6.764;2023-01-15T02:20:19;8.30;99.90
14182;DHT22;7171;50.936;6.764;2023-01-15T02:22:58;8.30;99.90
14182;DHT22;7171;50.936;6.764;2023-01-15T02:25:32;8.30;99.90
14182;DHT22;7171;50.936;6.764;2023-01-15T02:28:11;8.30;99.90
14182;DHT22;7171;50.936;6.764;2023-01-15T02:30:42;8.30;99.90
14182;DHT22;7171;50.936;6.764;2023-01-15T02:33:14;8.30;99.90
14182;DHT22;7171;50.936;6.764;2023-01-15T02:35:46;8.20;99.90
14182;DHT22;7171;50.936;6.764;2023-01-15T02:38:17;8.30;99.90
14182;DHT22;7171;50.936;6.764;2023-01-15T02:40:45;8.20;99.90
14182;DHT22;7171;50.936;6.764;2023-01-15T02:43:16;8.20;99.90
14182;DHT22;7171;50.936;6.764;2023-01-15T02:45:47;8.20;99.90
14182;DHT22;7171;50.936;6.764;2023-01-15T02:48:17;8.20;99.90
14182;DHT22;7171;50.936;6.764;2023-01-15T02:50:49;8.20;99.90
14182;DHT22;7171;50.936;6.764;2023-01-15T02:53:20;8.10;99.90
14182;DHT22;7171;50.936;6.764;2023-01-15T02:55:51;8.10;99.90
14182;DHT22;7171;50.936;6.764;2023-01-15T02:58:23;8.10;99.90
14182;DHT22;7171;50.936;6.764;2023-01-15T03:00:53;8.10;99.90
14182;DHT22;7171;50.936;6.764;2023-01-15T03:03:30;8.10;99.90
14182;DHT22;7171;50.936;6.764;2023-01-15T03:06:01;8.10;99.90
14182;DHT22;7171;50.936;6.764;2023-01-15T03:08:30;8.10;99.90
14182;DHT22;7171;50.936;6.764;2023-01-15T03:11:03;8.10;99.90
14182;DHT22;7171;50.936;6.764;2023-01-15T03:13:41;8.10;99.90
14182;DHT22;7171;50.936;6.764;2023-01-15T03:16:15;8.10;99.90
14182;DHT22;7171;50.936;6.764;2023-01-15T03:19:08;8.10;99.90
14182;DHT22;7171;50.936;6.764;2023-01-15T03:21:43;8.10;99.90
14182;DHT22;7171;50.936;6.764;2023-01-15T03:24:14;8.10;99.90
14182;DHT22;7171;50.936;6.764;2023-01-15T03:26:42;8.10;99.90
14182;DHT22;7171;50.936;6.764;2023-01-15T03:29:11;8.10;99.90
14182;DHT22;7171;50.936;6.764;2023-01-15T03:31:38;8.10;99.90
14182;DHT22;7171;50.936;6.764;2023-01-15T03:34:06;8.10;99.90
14182;DHT22;7171;50.936;6.764;2023-01-15T03:36:32;8.10;99.90
14182;DHT22;7171;50.936;6.764;2023-01-15T03:38:59;8.20;99.90
14182;DHT22;7171;50.936;6.764;2023-01-15T03:41:33;8.20;99.90
14182;DHT22;7171;50.936;6.764;2023-01-15T03:44:08;8.20;99.90
14182;DHT22;7171;50.936;6.764;2023-01-15T03:46:55;8.20;99.90
14182;DHT22;7171;50.936;6.764;2023-01-15T03:49:30;8.30;99.90
14182;DHT22;7171;50.936;6.764;2023-01-15T03:52:03;8.30;99.90
14182;DHT22;7171;50.936;6.764;2023-01-15T03:54:37;8.30;99.90
14182;DHT22;7171;50.936;6.764;2023-01-15T03:57:12;8.30;99.90
14182;DHT22;7171;50.936;6.764;2023-01-15T03:59:45;8.40;99.90
14182;DHT22;7171;50.936;6.764;2023-01-15T04:02:17;8.40;99.90
14182;DHT22;7171;50.936;6.764;2023-01-15T04:04:46;6.70;99.90
14182;DHT22;7171;50.936;6.764;2023-01-15T04:07:15;8.40;99.90
14182;DHT22;7171;50.936;6.764;2023-01-15T04:09:42;8.40;99.90
14182;DHT22;7171;50.936;6.764;2023-01-15T04:12:09;8.40;99.90
14182;DHT22;7171;50.936;6.764;2023-01-15T04:14:36;8.40;99.90
14182;DHT22;7171;50.936;6.764;2023-01-15T04:17:02;8.40;99.90
14182;DHT22;7171;50.936;6.764;2023-01-15T04:19:30;8.40;99.90
14182;DHT22;7171;50.936;6.764;2023-01-15T04:21:57;8.40;99.90
14182;DHT22;7171;50.936;6.764;2023-01-15T04:24:24;8.40;99.90
14182;DHT22;7171;50.936;6.764;2023-01-15T04:26:51;8.40;99.90
14182;DHT22;7171;50.936;6.764;2023-01-15T04:29:17;8.40;99.90
14182;DHT22;7171;50.936;6.764;2023-01-15T04:31:44;8.40;99.90
14182;DHT22;7171;50.936;6.764;2023-01-15T04:34:11;8.40;99.90
14182;DHT22;7171;50.936;6.764;2023-01-15T04:36:39;8.40;99.90
14182;DHT22;7171;50.936;6.764;2023-01-15T04:39:07;8.40;99.90
14182;DHT22;7171;50.936;6.764;2023-01-15T04:41:33;8.40;99.90
14182;DHT22;7171;50.936;6.764;2023-01-15T04:44:18;8.40;99.90
14182;DHT22;7171;50.936;6.764;2023-01-15T04:46:45;8.40;99.90
14182;DHT22;7171;50.936;6.764;2023-01-15T04:49:13;8.40;99.90
14182;DHT22;7171;50.936;6.764;2023-01-15T04:51:42;8.40;99.90
14182;DHT22;7171;50.936;6.764;2023-01-15T04:54:11;8.40;99.90
14182;DHT22;7171;50.936;6.764;2023-01-15T04:56:41;8.40;99.90
14182;DHT22;7171;50.936;6.764;2023-01-15T04:59:08;8.40;99.90
14182;DHT22;7171;50.936;6.764;2023-01-15T05:01:35;8.40;99.90
14182;DHT22;7171;50.936;6.764;2023-01-15T05:04:03;8.40;99.90
14182;DHT22;7171;50.936;6.764;2023-01-15T05:06:30;8.40;99.90
14182;DHT22;7171;50.936;6.764;2023-01-15T05:08:58;8.40;99.90
14182;DHT22;7171;50.936;6.764;2023-01-15T05:11:25;8.40;99.90
14182;DHT22;7171;50.936;6.764;2023-01-15T05:13:52;8.40;99.90
14182;DHT22;7171;50.936;6.764;2023-01-15T05:16:20;8.40;99.90
14182;DHT22;7171;50.936;6.764;2023-01-15T05:18:50;8.30;99.90
14182;DHT22;7171;50.936;6.764;2023-01-15T05:21:18;8.30;99.90
14182;DHT22;7171;50.936;6.764;2023-01-15T05:23:46;8.30;99.90
14182;DHT22;7171;50.936;6.764;2023-01-15T05:26:14;8.30;99.90
14182;DHT22;7171;50.936;6.764;2023-01-15T05:28:41;8.30;99.90
14182;DHT22;7171;50.936;6.764;2023-01-15T05:31:09;8.30;99.90
14182;DHT22;7171;50.936;6.764;2023-01-15T05:33:37;8.30;99.90
14182;DHT22;7171;50.936;6.764;2023-01-15T05:36:05;8.30;99.90
14182;DHT22;7171;50.936;6.764;2023-01-15T05:38:32;8.30;99.90
14182;DHT22;7171;50.936;6.764;2023-01-15T05:41:02;8.40;99.90
14182;DHT22;7171;50.936;6.764;2023-01-15T05:43:50;8.40;99.90
14182;DHT22;7171;50.936;6.764;2023-01-15T05:46:17;8.40;99.90
14182;DHT22;7171;50.936;6.764;2023-01-15T05:48:44;8.40;99.90
14182;DHT22;7171;50.936;6.764;2023-01-15T05:51:11;8.40;99.90
14182;DHT22;7171;50.936;6.764;2023-01-15T05:53:38;8.40;99.90
14182;DHT22;7171;50.936;6.764;2023-01-15T05:56:05;8.40;99.90
14182;DHT22;7171;50.936;6.764;2023-01-15T05:58:32;8.30;99.90
14182;DHT22;7171;50.936;6.764;2023-01-15T06:01:05;8.30;99.90
14182;DHT22;7171;50.936;6.764;2023-01-15T06:03:31;8.30;99.90
14182;DHT22;7171;50.936;6.764;2023-01-15T06:05:58;8.30;99.90
14182;DHT22;7171;50.936;6.764;2023-01-15T06:08:25;8.30;99.90
14182;DHT22;7171;50.936;6.764;2023-01-15T06:10:51;8.30;99.90
14182;DHT22;7171;50.936;6.764;2023-01-15T06:13:18;8.30;99.90
14182;DHT22;7171;50.936;6.764;2023-01-15T06:15:45;8.30;99.90
14182;DHT22;7171;50.936;6.764;2023-01-15T06:18:13;8.30;99.90
14182;DHT22;7171;50.936;6.764;2023-01-15T06:20:41;8.30;99.90
14182;DHT22;7171;50.936;6.764;2023-01-15T06:23:08;8.30;99.90
14182;DHT22;7171;50.936;6.764;2023-01-15T06:25:36;8.20;99.90
14182;DHT22;7171;50.936;6.764;2023-01-15T06:28:03;8.20;99.90
14182;DHT22;7171;50.936;6.764;2023-01-15T06:30:29;8.20;99.90
14182;DHT22;7171;50.936;6.764;2023-01-15T06:35:24;8.10;99.90
14182;DHT22;7171;50.936;6.764;2023-01-15T06:37:51;8.10;99.90
14182;DHT22;7171;50.936;6.764;2023-01-15T06:40:18;8.10;99.90
14182;DHT22;7171;50.936;6.764;2023-01-15T06:42:46;8.10;99.90
14182;DHT22;7171;50.936;6.764;2023-01-15T06:45:36;8.10;99.90
14182;DHT22;7171;50.936;6.764;2023-01-15T06:48:21;8.10;99.90
14182;DHT22;7171;50.936;6.764;2023-01-15T06:50:49;8.10;99.90
14182;DHT22;7171;50.936;6.764;2023-01-15T06:53:16;8.10;99.90
14182;DHT22;7171;50.936;6.764;2023-01-15T06:55:43;8.10;99.90
14182;DHT22;7171;50.936;6.764;2023-01-15T06:58:09;8.10;99.90
14182;DHT22;7171;50.936;6.764;2023-01-15T07:00:36;8.00;99.90
14182;DHT22;7171;50.936;6.764;2023-01-15T07:03:04;8.00;99.90
14182;DHT22;7171;50.936;6.764;2023-01-15T07:05:30;8.00;99.90
14182;DHT22;7171;50.936;6.764;2023-01-15T07:07:59;8.00;99.90
14182;DHT22;7171;50.936;6.764;2023-01-15T07:10:26;8.00;99.90
14182;DHT22;7171;50.936;6.764;2023-01-15T07:12:52;8.00;99.90
14182;DHT22;7171;50.936;6.764;2023-01-15T07:15:19;8.10;99.90
14182;DHT22;7171;50.936;6.764;2023-01-15T07:17:46;8.10;99.90
14182;DHT22;7171;50.936;6.764;2023-01-15T07:20:12;8.10;99.90
14182;DHT22;7171;50.936;6.764;2023-01-15T07:22:39;8.10;99.90
14182;DHT22;7171;50.936;6.764;2023-01-15T07:25:08;8.10;99.90
14182;DHT22;7171;50.936;6.764;2023-01-15T07:27:35;8.10;99.90
14182;DHT22;7171;50.936;6.764;2023-01-15T07:30:02;8.10;99.90
14182;DHT22;7171;50.936;6.764;2023-01-15T07:32:29;8.20;99.90
14182;DHT22;7171;50.936;6.764;2023-01-15T07:34:56;8.20;99.90
14182;DHT22;7171;50.936;6.764;2023-01-15T07:37:22;8.20;99.90
14182;DHT22;7171;50.936;6.764;2023-01-15T07:39:49;8.20;99.90
14182;DHT22;7171;50.936;6.764;2023-01-15T07:42:17;8.20;99.90
14182;DHT22;7171;50.936;6.764;2023-01-15T07:45:02;8.10;99.90
14182;DHT22;7171;50.936;6.764;2023-01-15T07:47:46;8.10;99.90
14182;DHT22;7171;50.936;6.764;2023-01-15T07:50:38;8.10;99.90
14182;DHT22;7171;50.936;6.764;2023-01-15T07:53:05;8.00;99.90
14182;DHT22;7171;50.936;6.764;2023-01-15T07:55:32;8.00;99.90
14182;DHT22;7171;50.936;6.764;2023-01-15T07:58:02;8.00;99.90
14182;DHT22;7171;50.936;6.764;2023-01-15T08:00:28;8.00;99.90
14182;DHT22;7171;50.936;6.764;2023-01-15T08:02:55;7.90;99.90
14182;DHT22;7171;50.936;6.764;2023-01-15T08:05:22;7.90;99.90
14182;DHT22;7171;50.936;6.764;2023-01-15T08:07:48;7.80;99.90
14182;DHT22;7171;50.936;6.764;2023-01-15T08:10:15;7.70;99.90
14182;DHT22;7171;50.936;6.764;2023-01-15T08:12:44;7.60;99.90
14182;DHT22;7171;50.936;6.764;2023-01-15T08:15:32;7.50;99.90
14182;DHT22;7171;50.936;6.764;2023-01-15T08:18:00;7.40;99.90
14182;DHT22;7171;50.936;6.764;2023-01-15T08:20:27;7.30;99.90
14182;DHT22;7171;50.936;6.764;2023-01-15T08:22:53;7.20;99.90
14182;DHT22;7171;50.936;6.764;2023-01-15T08:25:21;7.10;99.90
14182;DHT22;7171;50.936;6.764;2023-01-15T08:27:49;7.00;99.90
14182;DHT22;7171;50.936;6.764;2023-01-15T08:30:17;7.00;99.90
14182;DHT22;7171;50.936;6.764;2023-01-15T08:32:46;6.90;99.90
14182;DHT22;7171;50.936;6.764;2023-01-15T08:35:13;6.80;99.90
14182;DHT22;7171;50.936;6.764;2023-01-15T08:37:40;6.60;99.90
14182;DHT22;7171;50.936;6.764;2023-01-15T08:40:08;6.50;99.90
14182;DHT22;7171;50.936;6.764;2023-01-15T08:42:35;6.50;99.90
14182;DHT22;7171;50.936;6.764;2023-01-15T08:45:02;6.40;99.90
14182;DHT22;7171;50.936;6.764;2023-01-15T08:47:29;6.30;99.90
14182;DHT22;7171;50.936;6.764;2023-01-15T08:49:58;6.20;99.90
14182;DHT22;7171;50.936;6.764;2023-01-15T08:52:24;6.20;99.90
14182;DHT22;7171;50.936;6.764;2023-01-15T08:54:51;6.20;99.90
14182;DHT22;7171;50.936;6.764;2023-01-15T08:57:18;6.20;99.90
14182;DHT22;7171;50.936;6.764;2023-01-15T08:59:46;6.30;99.90
14182;DHT22;7171;50.936;6.764;2023-01-15T09:02:14;6.30;99.90
14182;DHT22;7171;50.936;6.764;2023-01-15T09:04:42;6.30;99.90
14182;DHT22;7171;50.936;6.764;2023-01-15T09:07:10;6.40;99.90
14182;DHT22;7171;50.936;6.764;2023-01-15T09:22:01;6.30;99.90
14182;DHT22;7171;50.936;6.764;2023-01-15T09:24:28;6.30;99.90
14182;DHT22;7171;50.936;6.764;2023-01-15T09:26:54;6.30;99.90
14182;DHT22;7171;50.936;6.764;2023-01-15T09:29:21;6.40;99.90
14182;DHT22;7171;50.936;6.764;2023-01-15T09:31:48;6.50;99.90
14182;DHT22;7171;50.936;6.764;2023-01-15T09:34:14;6.50;99.90
14182;DHT22;7171;50.936;6.764;2023-01-15T09:36:41;6.70;99.90
14182;DHT22;7171;50.936;6.764;2023-01-15T09:39:10;6.70;99.90
14182;DHT22;7171;50.936;6.764;2023-01-15T09:41:50;6.80;99.90
14182;DHT22;7171;50.936;6.764;2023-01-15T09:44:38;6.90;99.90
14182;DHT22;7171;50.936;6.764;2023-01-15T09:47:11;7.00;99.90
14182;DHT22;7171;50.936;6.764;2023-01-15T09:49:59;7.10;99.90
14182;DHT22;7171;50.936;6.764;2023-01-15T09:52:49;7.20;99.90
14182;DHT22;7171;50.936;6.764;2023-01-15T09:55:24;7.30;99.90
14182;DHT22;7171;50.936;6.764;2023-01-15T09:57:54;7.30;99.90
14182;DHT22;7171;50.936;6.764;2023-01-15T10:00:23;7.40;99.90
14182;DHT22;7171;50.936;6.764;2023-01-15T10:02:56;7.50;99.90
14182;DHT22;7171;50.936;6.764;2023-01-15T10:05:28;7.50;99.90
14182;DHT22;7171;50.936;6.764;2023-01-15T10:07:59;7.60;99.90
14182;DHT22;7171;50.936;6.764;2023-01-15T10:10:32;7.70;99.90
14182;DHT22;7171;50.936;6.764;2023-01-15T10:13:07;9.40;99.90
14182;DHT22;7171;50.936;6.764;2023-01-15T10:15:40;7.40;99.90
14182;DHT22;7171;50.936;6.764;2023-01-15T10:18:13;8.00;99.90
14182;DHT22;7171;50.936;6.764;2023-01-15T10:20:58;8.10;99.90
14182;DHT22;7171;50.936;6.764;2023-01-15T10:23:34;8.20;99.90
14182;DHT22;7171;50.936;6.764;2023-01-15T10:26:11;8.20;99.90
14182;DHT22;7171;50.936;6.764;2023-01-15T10:28:56;8.20;99.90
14182;DHT22;7171;50.936;6.764;2023-01-15T10:31:36;8.20;99.90
14182;DHT22;7171;50.936;6.764;2023-01-15T10:34:29;8.10;99.90
14182;DHT22;7171;50.936;6.764;2023-01-15T10:37:03;8.10;99.90
14182;DHT22;7171;50.936;6.764;2023-01-15T10:39:38;7.70;99.90
14182;DHT22;7171;50.936;6.764;2023-01-15T10:42:20;8.20;99.90
14182;DHT22;7171;50.936;6.764;2023-01-15T10:44:54;8.20;99.90
14182;DHT22;7171;50.936;6.764;2023-01-15T10:47:29;8.20;99.90
14182;DHT22;7171;50.936;6.764;2023-01-15T10:49:58;8.20;99.90
14182;DHT22;7171;50.936;6.764;2023-01-15T10:52:29;8.20;99.90
14182;DHT22;7171;50.936;6.764;2023-01-15T10:55:03;8.20;99.90
14182;DHT22;7171;50.936;6.764;2023-01-15T10:57:45;8.30;99.90
14182;DHT22;7171;50.936;6.764;2023-01-15T11:00:15;8.10;99.90
14182;DHT22;7171;50.936;6.764;2023-01-15T11:02:43;8.30;99.90
14182;DHT22;7171;50.936;6.764;2023-01-15T11:05:14;8.50;99.90
14182;DHT22;7171;50.936;6.764;2023-01-15T11:07:42;8.00;99.90
14182;DHT22;7171;50.936;6.764;2023-01-15T11:10:13;8.40;99.90
14182;DHT22;7171;50.936;6.764;2023-01-15T11:15:30;7.60;99.90
14182;DHT22;7171;50.936;6.764;2023-01-15T11:18:21;8.40;99.90
14182;DHT22;7171;50.936;6.764;2023-01-15T11:26:05;8.50;99.90
14182;DHT22;7171;50.936;6.764;2023-01-15T11:28:35;8.40;99.90
14182;DHT22;7171;50.936;6.764;2023-01-15T11:31:05;8.50;99.90
14182;DHT22;7171;50.936;6.764;2023-01-15T11:33:32;8.50;99.90
14182;DHT22;7171;50.936;6.764;2023-01-15T11:36:00;8.60;99.90
14182;DHT22;7171;50.936;6.764;2023-01-15T11:40:57;8.60;99.90
14182;DHT22;7171;50.936;6.764;2023-01-15T11:43:26;8.60;99.90
14182;DHT22;7171;50.936;6.764;2023-01-15T11:46:27;8.60;99.90
14182;DHT22;7171;50.936;6.764;2023-01-15T11:49:15;8.60;99.90
14182;DHT22;7171;50.936;6.764;2023-01-15T11:52:01;8.50;99.90
14182;DHT22;7171;50.936;6.764;2023-01-15T11:54:29;9.40;99.90
14182;DHT22;7171;50.936;6.764;2023-01-15T11:56:58;8.40;99.90
14182;DHT22;7171;50.936;6.764;2023-01-15T11:59:25;8.40;99.90
14182;DHT22;7171;50.936;6.764;2023-01-15T12:01:54;8.40;99.90
14182;DHT22;7171;50.936;6.764;2023-01-15T12:04:32;8.40;99.90
14182;DHT22;7171;50.936;6.764;2023-01-15T12:07:00;8.40;99.90
14182;DHT22;7171;50.936;6.764;2023-01-15T12:09:38;8.40;99.90
14182;DHT22;7171;50.936;6.764;2023-01-15T12:12:15;8.40;99.90
14182;DHT22;7171;50.936;6.764;2023-01-15T12:14:59;8.40;99.90
14182;DHT22;7171;50.936;6.764;2023-01-15T12:17:54;8.40;99.90
14182;DHT22;7171;50.936;6.764;2023-01-15T12:20:26;8.40;99.90
14182;DHT22;7171;50.936;6.764;2023-01-15T12:23:15;8.40;99.90
14182;DHT22;7171;50.936;6.764;2023-01-15T12:25:51;8.40;99.90
14182;DHT22;7171;50.936;6.764;2023-01-15T12:28:23;8.40;99.90
14182;DHT22;7171;50.936;6.764;2023-01-15T12:30:58;8.40;99.90
14182;DHT22;7171;50.936;6.764;2023-01-15T12:33:41;8.40;99.90
14182;DHT22;7171;50.936;6.764;2023-01-15T12:36:13;8.40;99.90
14182;DHT22;7171;50.936;6.764;2023-01-15T12:38:49;8.40;99.90
14182;DHT22;7171;50.936;6.764;2023-01-15T12:41:21;8.40;99.90
14182;DHT22;7171;50.936;6.764;2023-01-15T12:43:51;8.40;99.90
14182;DHT22;7171;50.936;6.764;2023-01-15T12:46:33;8.40;99.90
14182;DHT22;7171;50.936;6.764;2023-01-15T12:49:16;8.40;99.90
14182;DHT22;7171;50.936;6.764;2023-01-15T12:51:49;8.50;99.90
14182;DHT22;7171;50.936;6.764;2023-01-15T12:54:21;8.50;99.90
14182;DHT22;7171;50.936;6.764;2023-01-15T12:56:55;8.50;99.90
14182;DHT22;7171;50.936;6.764;2023-01-15T12:59:28;8.60;99.90
14182;DHT22;7171;50.936;6.764;2023-01-15T13:02:01;8.60;99.90
14182;DHT22;7171;50.936;6.764;2023-01-15T13:04:42;8.60;99.90
14182;DHT22;7171;50.936;6.764;2023-01-15T13:07:16;8.70;99.90
14182;DHT22;7171;50.936;6.764;2023-01-15T13:09:48;8.70;99.90
14182;DHT22;7171;50.936;6.764;2023-01-15T13:12:17;8.70;99.90
14182;DHT22;7171;50.936;6.764;2023-01-15T13:14:44;8.70;99.90
14182;DHT22;7171;50.936;6.764;2023-01-15T13:17:19;8.70;99.90
14182;DHT22;7171;50.936;6.764;2023-01-15T13:20:01;8.70;99.90
14182;DHT22;7171;50.936;6.764;2023-01-15T13:22:31;8.70;99.90
14182;DHT22;7171;50.936;6.764;2023-01-15T13:28:21;8.70;99.90
14182;DHT22;7171;50.936;6.764;2023-01-15T13:31:01;8.70;99.90
14182;DHT22;7171;50.936;6.764;2023-01-15T13:33:36;8.70;99.90
14182;DHT22;7171;50.936;6.764;2023-01-15T13:36:10;8.70;99.90
14182;DHT22;7171;50.936;6.764;2023-01-15T13:38:40;8.70;99.90
14182;DHT22;7171;50.936;6.764;2023-01-15T13:41:07;8.80;99.90
14182;DHT22;7171;50.936;6.764;2023-01-15T13:43:36;8.80;99.90
14182;DHT22;7171;50.936;6.764;2023-01-15T13:48:36;8.90;99.90
14182;DHT22;7171;50.936;6.764;2023-01-15T13:51:22;9.00;99.90
14182;DHT22;7171;50.936;6.764;2023-01-15T13:53:50;8.90;99.90
14182;DHT22;7171;50.936;6.764;2023-01-15T13:56:25;9.00;99.90
14182;DHT22;7171;50.936;6.764;2023-01-15T13:58:54;9.00;99.90
14182;DHT22;7171;50.936;6.764;2023-01-15T14:01:24;8.90;99.90
14182;DHT22;7171;50.936;6.764;2023-01-15T14:03:59;8.90;99.90
14182;DHT22;7171;50.936;6.764;2023-01-15T14:06:41;8.90;99.90
14182;DHT22;7171;50.936;6.764;2023-01-15T14:09:10;8.90;99.90
14182;DHT22;7171;50.936;6.764;2023-01-15T14:11:39;8.90;99.90
14182;DHT22;7171;50.936;6.764;2023-01-15T14:14:27;8.90;99.90
14182;DHT22;7171;50.936;6.764;2023-01-15T14:17:09;8.90;99.90
14182;DHT22;7171;50.936;6.764;2023-01-15T14:19:59;8.80;99.90
14182;DHT22;7171;50.936;6.764;2023-01-15T14:22:43;8.80;99.90
14182;DHT22;7171;50.936;6.764;2023-01-15T14:25:22;8.80;99.90
14182;DHT22;7171;50.936;6.764;2023-01-15T14:28:04;8.80;99.90
14182;DHT22;7171;50.936;6.764;2023-01-15T14:30:58;8.70;99.90
14182;DHT22;7171;50.936;6.764;2023-01-15T14:33:36;8.70;99.90
14182;DHT22;7171;50.936;6.764;2023-01-15T14:36:09;8.60;99.90
14182;DHT22;7171;50.936;6.764;2023-01-15T14:38:45;8.60;99.90
14182;DHT22;7171;50.936;6.764;2023-01-15T14:41:13;8.60;99.90
14182;DHT22;7171;50.936;6.764;2023-01-15T14:43:47;8.60;99.90
14182;DHT22;7171;50.936;6.764;2023-01-15T14:46:19;8.60;99.90
14182;DHT22;7171;50.936;6.764;2023-01-15T14:48:47;8.60;99.90
14182;DHT22;7171;50.936;6.764;2023-01-15T14:51:17;8.60;99.90
14182;DHT22;7171;50.936;6.764;2023-01-15T14:53:51;8.60;99.90
14182;DHT22;7171;50.936;6.764;2023-01-15T14:56:20;8.60;99.90
14182;DHT22;7171;50.936;6.764;2023-01-15T14:58:53;8.60;99.90
14182;DHT22;7171;50.936;6.764;2023-01-15T15:01:33;8.60;99.90
14182;DHT22;7171;50.936;6.764;2023-01-15T15:04:09;8.60;99.90
14182;DHT22;7171;50.936;6.764;2023-01-15T15:06:44;8.60;99.90
14182;DHT22;7171;50.936;6.764;2023-01-15T15:09:13;8.70;99.90
14182;DHT22;7171;50.936;6.764;2023-01-15T15:11:44;8.70;99.90
14182;DHT22;7171;50.936;6.764;2023-01-15T15:14:30;8.70;99.90
14182;DHT22;7171;50.936;6.764;2023-01-15T15:17:00;8.60;99.90
14182;DHT22;7171;50.936;6.764;2023-01-15T15:19:33;8.60;99.90
14182;DHT22;7171;50.936;6.764;2023-01-15T15:22:04;8.60;99.90
14182;DHT22;7171;50.936;6.764;2023-01-15T15:24:34;8.60;99.90
14182;DHT22;7171;50.936;6.764;2023-01-15T15:27:13;8.60;99.90
14182;DHT22;7171;50.936;6.764;2023-01-15T15:29:41;8.50;99.90
14182;DHT22;7171;50.936;6.764;2023-01-15T15:32:11;8.50;99.90
14182;DHT22;7171;50.936;6.764;2023-01-15T15:34:40;8.50;99.90
14182;DHT22;7171;50.936;6.764;2023-01-15T15:37:14;8.50;99.90
14182;DHT22;7171;50.936;6.764;2023-01-15T15:39:48;8.50;99.90
14182;DHT22;7171;50.936;6.764;2023-01-15T15:42:20;8.60;99.90
14182;DHT22;7171;50.936;6.764;2023-01-15T15:45:14;8.60;99.90
14182;DHT22;7171;50.936;6.764;2023-01-15T15:47:58;8.60;99.90
14182;DHT22;7171;50.936;6.764;2023-01-15T15:50:47;8.60;99.90
14182;DHT22;7171;50.936;6.764;2023-01-15T15:53:16;8.60;99.90
14182;DHT22;7171;50.936;6.764;2023-01-15T15:55:44;8.60;99.90
14182;DHT22;7171;50.936;6.764;2023-01-15T15:58:18;8.60;99.90
14182;DHT22;7171;50.936;6.764;2023-01-15T16:00:48;8.60;99.90
14182;DHT22;7171;50.936;6.764;2023-01-15T16:03:18;8.60;99.90
14182;DHT22;7171;50.936;6.764;2023-01-15T16:05:54;8.60;99.90
14182;DHT22;7171;50.936;6.764;2023-01-15T16:08:22;8.60;99.90
14182;DHT22;7171;50.936;6.764;2023-01-15T16:10:52;8.60;99.90
14182;DHT22;7171;50.936;6.764;2023-01-15T16:13:22;8.60;99.90
14182;DHT22;7171;50.936;6.764;2023-01-15T16:15:52;8.60;99.90
14182;DHT22;7171;50.936;6.764;2023-01-15T16:18:23;8.60;99.90
14182;DHT22;7171;50.936;6.764;2023-01-15T16:20:50;8.60;99.90
14182;DHT22;7171;50.936;6.764;2023-01-15T16:23:20;8.60;99.90
14182;DHT22;7171;50.936;6.764;2023-01-15T16:26:04;8.60;99.90
14182;DHT22;7171;50.936;6.764;2023-01-15T16:28:37;8.70;99.90
14182;DHT22;7171;50.936;6.764;2023-01-15T16:31:07;8.70;99.90
14182;DHT22;7171;50.936;6.764;2023-01-15T16:33:34;8.70;99.90
14182;DHT22;7171;50.936;6.764;2023-01-15T16:36:02;8.70;99.90
14182;DHT22;7171;50.936;6.764;2023-01-15T16:38:31;8.70;99.90
14182;DHT22;7171;50.936;6.764;2023-01-15T16:40:59;8.70;99.90
14182;DHT22;7171;50.936;6.764;2023-01-15T16:43:28;8.70;99.90
14182;DHT22;7171;50.936;6.764;2023-01-15T16:46:01;8.80;99.90
14182;DHT22;7171;50.936;6.764;2023-01-15T16:48:30;8.70;99.90
14182;DHT22;7171;50.936;6.764;2023-01-15T16:51:22;8.70;99.90
14182;DHT22;7171;50.936;6.764;2023-01-15T16:53:49;8.70;99.90
14182;DHT22;7171;50.936;6.764;2023-01-15T16:56:25;8.70;99.90
14182;DHT22;7171;50.936;6.764;2023-01-15T16:58:53;8.70;99.90
14182;DHT22;7171;50.936;6.764;2023-01-15T17:01:31;8.70;99.90